Time;durP1;ratioP1;P1;durP2;ratioP2;P2;SDS_P1;SDS_P2;PMS_P1;PMS_P2;Temp;Humidity;BMP_temperature;BMP_pressure;BME280_temperature;BME280_humidity;BME280_pressure;Samples;Min_cycle;Max_cycle;Signal;HPM_P1;HPM_P2
2022/07/23 00:01:03;;;;;;;4.18;1.98;;;;;;;17.82;100.00;101860.44;4716462;30;20065;-60
2022/07/23 00:03:29;;;;;;;4.55;2.10;;;;;;;17.82;100.00;101856.94;4728617;30;20097;-61
2022/07/23 00:05:55;;;;;;;5.05;1.88;;;;;;;17.76;100.00;101858.47;4730609;30;20056;-62
2022/07/23 00:08:22;;;;;;;4.15;2.30;;;;;;;17.70;100.00;101862.63;4741505;30;20068;-62
2022/07/23 00:10:48;;;;;;;4.13;1.95;;;;;;;17.68;100.00;101861.09;4742396;30;20086;-61
2022/07/23 00:13:15;;;;;;;5.22;2.10;;;;;;;17.63;100.00;101860.78;4729511;30;20102;-62
2022/07/23 00:15:41;;;;;;;5.97;2.08;;;;;;;17.57;100.00;101860.47;4722881;30;20067;-62
2022/07/23 00:18:08;;;;;;;3.90;1.90;;;;;;;17.52;100.00;101864.59;4724960;30;20138;-61
2022/07/23 00:20:34;;;;;;;4.53;2.03;;;;;;;17.41;100.00;101859.66;4738352;30;20060;-61
2022/07/23 00:23:01;;;;;;;5.97;2.67;;;;;;;17.38;100.00;101856.31;4730493;30;20071;-61
2022/07/23 00:25:27;;;;;;;5.40;2.22;;;;;;;17.37;100.00;101857.31;4729169;30;21413;-61
2022/07/23 00:27:58;;;;;;;4.40;2.40;;;;;;;17.36;100.00;101854.84;4731907;30;20147;-61
2022/07/23 00:30:25;;;;;;;6.05;2.50;;;;;;;17.33;100.00;101850.69;4726544;30;20144;-61
2022/07/23 00:32:56;;;;;;;5.80;2.63;;;;;;;17.34;100.00;101856.81;4733593;30;20067;-61
2022/07/23 00:35:25;;;;;;;3.35;2.10;;;;;;;17.29;100.00;101852.03;4718914;30;20147;-61
2022/07/23 00:37:53;;;;;;;4.35;2.50;;;;;;;17.15;100.00;101852.66;4730338;30;20441;-61
2022/07/23 00:40:19;;;;;;;5.07;2.25;;;;;;;17.16;100.00;101859.63;4728251;30;20522;-60
2022/07/23 00:42:46;;;;;;;7.05;2.83;;;;;;;17.11;100.00;101854.84;4725826;30;20069;-61
2022/07/23 00:45:13;;;;;;;4.85;2.70;;;;;;;17.05;100.00;101857.28;4731077;30;20064;-61
2022/07/23 00:47:40;;;;;;;5.15;2.60;;;;;;;17.02;100.00;101855.00;4717936;30;20064;-61
2022/07/23 00:50:08;;;;;;;5.88;2.60;;;;;;;17.01;100.00;101854.13;4726039;30;20065;-60
2022/07/23 00:52:37;;;;;;;5.30;2.63;;;;;;;16.99;100.00;101858.78;4723833;30;20064;-60
2022/07/23 00:55:04;;;;;;;;;;;;;;;16.98;100.00;101847.34;4733905;30;20090;-62
2022/07/23 00:57:31;;;;;;;5.72;2.40;;;;;;;16.97;100.00;101848.34;4722388;30;20025;-59
2022/07/23 00:59:57;;;;;;;8.50;2.78;;;;;;;16.95;100.00;101844.19;4739265;30;20064;-61
2022/07/23 01:02:25;;;;;;;5.53;2.88;;;;;;;16.95;100.00;101847.66;4723087;30;20464;-61
2022/07/23 01:04:52;;;;;;;4.13;2.60;;;;;;;16.95;100.00;101849.50;4727064;30;20562;-61
2022/07/23 01:07:19;;;;;;;9.38;3.28;;;;;;;16.92;100.00;101842.72;4743694;30;20062;-61
2022/07/23 01:09:47;;;;;;;5.10;2.95;;;;;;;16.93;100.00;101844.34;4742320;30;20059;-60
2022/07/23 01:12:13;;;;;;;5.07;3.03;;;;;;;16.92;100.00;101848.00;4745647;30;20087;-61
2022/07/23 01:14:40;;;;;;;6.82;3.15;;;;;;;16.89;100.00;101845.66;4735761;30;20779;-61
2022/07/23 01:17:06;;;;;;;5.63;2.83;;;;;;;16.82;100.00;101843.84;4732003;30;20072;-62
2022/07/23 01:19:33;;;;;;;6.00;3.15;;;;;;;16.78;100.00;101838.84;4727798;30;20071;-61
2022/07/23 01:22:02;;;;;;;4.35;3.22;;;;;;;16.83;100.00;101837.56;4724695;30;20548;-63
2022/07/23 01:24:30;;;;;;;7.38;3.20;;;;;;;16.80;100.00;101838.69;4740747;30;20064;-62
2022/07/23 01:26:56;;;;;;;5.22;3.03;;;;;;;16.77;100.00;101833.69;4730055;30;20076;-63
2022/07/23 01:29:23;;;;;;;5.57;3.30;;;;;;;16.73;100.00;101841.13;4740497;30;20082;-62
2022/07/23 01:31:49;;;;;;;5.32;3.30;;;;;;;16.67;100.00;101825.91;4731990;30;20565;-61
2022/07/23 01:34:16;;;;;;;6.82;3.45;;;;;;;16.65;100.00;101837.66;4717186;30;20090;-63
2022/07/23 01:36:42;;;;;;;5.18;3.30;;;;;;;16.58;100.00;101840.94;4727534;30;20057;-60
2022/07/23 01:39:09;;;;;;;7.28;3.20;;;;;;;16.55;100.00;101837.78;4730370;30;20554;-62
2022/07/23 01:41:35;;;;;;;6.22;3.05;;;;;;;16.49;100.00;101831.31;4750726;30;20060;-60
2022/07/23 01:44:02;;;;;;;5.68;3.50;;;;;;;16.46;100.00;101830.81;4730861;30;20056;-61
2022/07/23 01:46:29;;;;;;;5.20;3.08;;;;;;;16.41;100.00;101826.00;4726891;30;20063;-62
2022/07/23 01:48:55;;;;;;;5.22;3.22;;;;;;;16.35;100.00;101835.41;4725827;30;20419;-63
2022/07/23 01:51:22;;;;;;;5.90;3.15;;;;;;;16.34;100.00;101830.25;4734666;30;20060;-61
2022/07/23 01:53:48;;;;;;;7.68;3.15;;;;;;;16.30;100.00;101834.22;4738981;30;20064;-61
2022/07/23 01:56:15;;;;;;;6.25;3.28;;;;;;;16.30;100.00;101839.53;4729328;30;20084;-62
2022/07/23 01:58:42;;;;;;;4.75;3.20;;;;;;;16.27;100.00;101837.19;4736818;30;20047;-62
2022/07/23 02:01:08;;;;;;;7.03;3.60;;;;;;;16.21;100.00;101841.31;4727631;29;20059;-62
2022/07/23 02:03:35;;;;;;;6.80;3.25;;;;;;;16.17;100.00;101839.94;4740202;30;20122;-61
2022/07/23 02:06:01;;;;;;;4.68;3.25;;;;;;;16.14;100.00;101840.28;4739646;30;20538;-62
2022/07/23 02:08:27;;;;;;;6.40;3.17;;;;;;;16.10;100.00;101838.94;4731090;30;20507;-62
2022/07/23 02:10:54;;;;;;;6.80;3.28;;;;;;;16.05;100.00;101831.44;4743089;30;20476;-61
2022/07/23 02:13:21;;;;;;;5.65;3.63;;;;;;;16.00;100.00;101829.28;4733008;30;20064;-62
2022/07/23 02:15:48;;;;;;;4.30;3.20;;;;;;;16.00;100.00;101831.13;4728745;30;20509;-63
2022/07/23 02:18:14;;;;;;;6.30;3.50;;;;;;;15.96;100.00;101827.13;4725116;30;20363;-61
2022/07/23 02:20:42;;;;;;;4.95;3.22;;;;;;;15.94;100.00;101832.56;4735316;30;20074;-63
2022/07/23 02:23:08;;;;;;;6.78;3.10;;;;;;;15.92;100.00;101839.84;4737277;30;20541;-60
2022/07/23 02:25:34;;;;;;;9.43;4.18;;;;;;;15.86;100.00;101821.09;4726857;30;20531;-62
2022/07/23 02:28:01;;;;;;;5.05;2.97;;;;;;;15.85;100.00;101822.09;4740782;30;20075;-63
2022/07/23 02:30:28;;;;;;;7.18;3.45;;;;;;;15.81;100.00;101821.56;4733625;30;20059;-60
2022/07/23 02:32:55;;;;;;;4.80;3.58;;;;;;;15.82;100.00;101824.06;4740222;30;20060;-63
2022/07/23 02:35:21;;;;;;;4.55;3.03;;;;;;;15.79;100.00;101820.91;4738391;30;20071;-62
2022/07/23 02:37:48;;;;;;;4.95;3.00;;;;;;;15.76;100.00;101815.94;4714298;30;20735;-64
2022/07/23 02:40:17;;;;;;;5.18;3.45;;;;;;;15.77;100.00;101828.97;4736540;30;20075;-62
2022/07/23 02:42:43;;;;;;;4.65;3.17;;;;;;;15.78;100.00;101829.84;4729267;30;20064;-64
2022/07/23 02:45:10;;;;;;;5.90;2.97;;;;;;;15.81;100.00;101826.88;4738025;30;20430;-64
2022/07/23 02:47:36;;;;;;;4.90;2.50;;;;;;;15.84;100.00;101826.56;4724822;30;20079;-61
2022/07/23 02:50:05;;;;;;;6.88;3.17;;;;;;;15.82;100.00;101828.53;4729230;30;20056;-63
2022/07/23 02:52:31;;;;;;;;;;;;;;;15.80;100.00;101835.81;4719653;30;20380;-63
2022/07/23 02:54:57;;;;;;;6.57;3.10;;;;;;;15.71;100.00;101836.69;4727508;30;20269;-64
2022/07/23 02:57:24;;;;;;;5.55;2.97;;;;;;;15.70;100.00;101833.22;4736490;30;20668;-62
2022/07/23 02:59:50;;;;;;;3.83;2.70;;;;;;;15.73;100.00;101837.41;4722067;30;20075;-62
2022/07/23 03:02:17;;;;;;;7.03;3.20;;;;;;;15.69;100.00;101831.56;4729070;30;20442;-62
2022/07/23 03:04:43;;;;;;;4.38;3.13;;;;;;;15.65;100.00;101832.03;4724580;30;20260;-62
2022/07/23 03:07:11;;;;;;;5.93;3.03;;;;;;;15.60;100.00;101825.41;4735776;30;20060;-61
2022/07/23 03:09:37;;;;;;;5.10;3.40;;;;;;;15.57;100.00;101838.91;4748535;30;20506;-63
2022/07/23 03:12:04;;;;;;;7.75;3.00;;;;;;;15.51;100.00;101831.59;4737227;30;20056;-63
2022/07/23 03:14:36;;;;;;;4.28;2.72;;;;;;;15.49;100.00;101836.22;4745904;30;20063;-63
2022/07/23 03:17:03;;;;;;;5.97;2.90;;;;;;;15.43;100.00;101831.53;4736015;30;20461;-62
2022/07/23 03:19:29;;;;;;;6.57;2.90;;;;;;;15.39;100.00;101830.19;4733370;30;20066;-61
2022/07/23 03:21:56;;;;;;;4.35;2.58;;;;;;;15.38;100.00;101834.63;4712726;30;20068;-62
2022/07/23 03:24:53;;;;;;;3.83;2.88;;;;;;;15.36;100.00;101836.59;4732719;30;20360;-62
2022/07/23 03:27:09;;;;;;;7.38;2.83;;;;;;;15.34;100.00;101835.91;4734328;30;20067;-63
2022/07/23 03:29:36;;;;;;;5.88;2.92;;;;;;;15.33;100.00;101834.28;4726510;30;20064;-64
2022/07/23 03:32:04;;;;;;;5.65;3.55;;;;;;;15.32;100.00;101834.41;4738078;30;20052;-60
2022/07/23 03:34:30;;;;;;;3.67;2.92;;;;;;;15.25;100.00;101836.00;4718483;30;20098;-62
2022/07/23 03:36:56;;;;;;;10.40;2.90;;;;;;;15.20;100.00;101839.13;4741418;30;20064;-63
2022/07/23 03:39:23;;;;;;;3.85;2.53;;;;;;;15.19;100.00;101834.78;4721981;30;20063;-62
2022/07/23 03:41:50;;;;;;;3.65;2.40;;;;;;;15.15;100.00;101836.09;4740502;30;20072;-62
2022/07/23 03:44:16;;;;;;;5.40;3.13;;;;;;;15.15;100.00;101842.22;4735110;30;20071;-64
2022/07/23 03:46:43;;;;;;;4.22;2.50;;;;;;;15.15;100.00;101849.31;4721314;30;20064;-62
2022/07/23 03:49:09;;;;;;;5.50;2.65;;;;;;;15.07;100.00;101842.13;4723205;30;20065;-62
2022/07/23 03:51:35;;;;;;;3.80;2.55;;;;;;;15.11;100.00;101847.94;4729820;30;20516;-63
2022/07/23 03:54:02;;;;;;;4.35;2.55;;;;;;;15.10;100.00;101856.88;4735555;30;20056;-63
2022/07/23 03:56:29;;;;;;;5.30;2.75;;;;;;;15.06;100.00;101856.34;4740820;30;20071;-63
2022/07/23 03:58:56;;;;;;;5.55;2.70;;;;;;;15.06;100.00;101856.34;4725005;30;20071;-62
2022/07/23 04:01:22;;;;;;;4.85;2.63;;;;;;;15.07;100.00;101862.44;4725009;30;20068;-63
2022/07/23 04:03:49;;;;;;;4.15;2.58;;;;;;;15.07;100.00;101867.72;4715697;30;20628;-63
2022/07/23 04:06:15;;;;;;;3.30;2.47;;;;;;;15.07;100.00;101857.97;4734083;30;20071;-63
2022/07/23 04:08:42;;;;;;;3.60;2.40;;;;;;;15.05;100.00;101865.22;4729630;30;20062;-62
2022/07/23 04:11:08;;;;;;;6.72;2.88;;;;;;;15.05;100.00;101856.47;4744585;30;20080;-61
2022/07/23 04:13:34;;;;;;;7.00;2.65;;;;;;;15.08;100.00;101869.41;4741454;30;20052;-63
2022/07/23 04:16:01;;;;;;;5.78;2.53;;;;;;;15.08;100.00;101853.53;4731857;30;20064;-63
2022/07/23 04:18:27;;;;;;;3.97;2.65;;;;;;;15.07;100.00;101857.16;4746677;30;20056;-63
2022/07/23 04:20:54;;;;;;;6.38;2.30;;;;;;;15.03;100.00;101846.91;4726592;30;20057;-63
2022/07/23 04:23:21;;;;;;;4.78;2.20;;;;;;;15.06;100.00;101853.69;4734149;30;20064;-63
2022/07/23 04:25:48;;;;;;;5.57;2.53;;;;;;;15.08;100.00;101846.44;4719579;30;20152;-62
2022/07/23 04:28:14;;;;;;;6.63;2.83;;;;;;;15.06;100.00;101840.47;4729937;30;20498;-64
2022/07/23 04:30:41;;;;;;;6.82;2.90;;;;;;;15.07;100.00;101843.94;4732310;30;20075;-63
2022/07/23 04:33:07;;;;;;;6.35;2.40;;;;;;;15.05;100.00;101849.38;4728482;30;20616;-62
2022/07/23 04:35:34;;;;;;;4.38;2.33;;;;;;;15.05;100.00;101849.38;4737314;30;20498;-62
2022/07/23 04:38:01;;;;;;;4.57;2.10;;;;;;;15.07;100.00;101857.97;4721425;29;20494;-63
2022/07/23 04:40:28;;;;;;;3.38;2.25;;;;;;;15.06;100.00;101860.78;4728784;30;20066;-62
2022/07/23 04:42:55;;;;;;;7.75;2.67;;;;;;;15.07;100.00;101857.16;4711769;30;20091;-61
2022/07/23 04:45:23;;;;;;;3.72;2.10;;;;;;;15.08;100.00;101861.47;4730925;30;20055;-62
2022/07/23 04:47:50;;;;;;;3.35;2.13;;;;;;;15.08;100.00;101864.94;4737983;30;20071;-60
2022/07/23 04:50:21;;;;;;;3.80;2.33;;;;;;;15.08;100.00;101870.22;4726000;30;20068;-63
2022/07/23 04:52:48;;;;;;;2.90;2.00;;;;;;;15.12;100.00;101865.47;4729496;30;20064;-62
2022/07/23 04:55:15;;;;;;;4.90;2.20;;;;;;;15.14;100.00;101866.97;4718389;30;20071;-62
2022/07/23 04:57:42;;;;;;;8.52;2.30;;;;;;;15.23;100.00;101865.25;4722905;30;20295;-63
2022/07/23 05:00:09;;;;;;;3.85;2.22;;;;;;;15.29;100.00;101861.16;4730173;30;20064;-63
2022/07/23 05:02:36;;;;;;;4.72;2.50;;;;;;;15.31;100.00;101865.31;4727709;30;20064;-62
2022/07/23 05:05:02;;;;;;;3.70;2.10;;;;;;;15.39;100.00;101854.00;4749771;30;20184;-63
2022/07/23 05:07:28;;;;;;;4.13;2.17;;;;;;;15.44;100.00;101862.28;4738984;30;20059;-61
2022/07/23 05:09:55;;;;;;;5.28;2.65;;;;;;;15.50;100.00;101856.38;4743060;30;20060;-62
2022/07/23 05:12:21;;;;;;;3.83;1.92;;;;;;;15.57;100.00;101861.88;4723805;30;20325;-63
2022/07/23 05:14:48;;;;;;;5.70;2.20;;;;;;;15.62;100.00;101862.25;4747909;30;20063;-63
2022/07/23 05:17:14;;;;;;;7.07;2.42;;;;;;;15.63;100.00;101855.97;4744993;30;20056;-63
2022/07/23 05:19:41;;;;;;;4.32;2.17;;;;;;;15.69;100.00;101865.13;4735859;30;20064;-62
2022/07/23 05:22:07;;;;;;;5.53;2.10;;;;;;;15.69;100.00;101867.75;4745625;30;20067;-63
2022/07/23 05:24:33;;;;;;;4.88;2.47;;;;;;;15.73;100.00;101863.84;4721650;30;20535;-63
2022/07/23 05:27:00;;;;;;;10.07;2.72;;;;;;;15.76;100.00;101877.59;4739356;30;20064;-63
2022/07/23 05:29:26;;;;;;;6.78;2.53;;;;;;;15.81;100.00;101880.59;4724758;30;20060;-62
2022/07/23 05:31:53;;;;;;;9.27;2.72;;;;;;;15.87;100.00;101888.91;4742231;30;20060;-61
2022/07/23 05:34:19;;;;;;;5.68;2.55;;;;;;;15.89;100.00;101887.75;4744005;30;20064;-61
2022/07/23 05:36:46;;;;;;;6.18;2.85;;;;;;;15.94;100.00;101889.97;4734355;30;20062;-61
2022/07/23 05:39:13;;;;;;;5.57;2.35;;;;;;;15.99;100.00;101893.81;4730620;30;20151;-62
2022/07/23 05:41:39;;;;;;;3.47;2.30;;;;;;;16.06;100.00;101895.81;4743297;30;20068;-63
2022/07/23 05:44:05;;;;;;;5.22;2.92;;;;;;;16.09;100.00;101895.50;4742418;30;20488;-62
2022/07/23 05:46:32;;;;;;;5.22;2.70;;;;;;;16.13;100.00;101902.97;4733003;30;20056;-62
2022/07/23 05:48:58;;;;;;;5.18;2.63;;;;;;;16.16;100.00;101905.28;4737301;30;20100;-62
2022/07/23 05:51:25;;;;;;;4.97;2.80;;;;;;;16.19;100.00;101902.34;4728502;30;20070;-62
2022/07/23 05:53:52;;;;;;;4.43;2.70;;;;;;;16.24;100.00;101907.16;4739423;30;20115;-61
2022/07/23 05:56:19;;;;;;;7.53;2.75;;;;;;;16.29;100.00;101915.47;4741844;30;20466;-63
2022/07/23 05:58:45;;;;;;;5.45;2.70;;;;;;;16.33;100.00;101918.63;4733604;30;20091;-61
2022/07/23 06:01:12;;;;;;;5.78;2.83;;;;;;;16.34;100.00;101913.16;4734440;30;20060;-63
2022/07/23 06:03:38;;;;;;;7.72;2.70;;;;;;;16.40;100.00;101920.47;4722991;30;20373;-63
2022/07/23 06:06:06;;;;;;;7.13;2.85;;;;;;;16.46;100.00;101926.97;4723751;30;20087;-61
2022/07/23 06:08:32;;;;;;;5.70;2.92;;;;;;;16.50;100.00;101920.34;4726729;30;20268;-63
2022/07/23 06:10:59;;;;;;;9.55;2.55;;;;;;;16.54;100.00;101915.56;4735614;30;20434;-62
2022/07/23 06:13:25;;;;;;;6.22;2.72;;;;;;;16.55;100.00;101912.78;4739861;30;20066;-63
2022/07/23 06:15:52;;;;;;;7.20;2.75;;;;;;;16.61;100.00;101919.25;4740570;30;20376;-62
2022/07/23 06:18:18;;;;;;;7.63;2.67;;;;;;;16.65;100.00;101915.31;4737970;30;20536;-63
2022/07/23 06:20:45;;;;;;;5.57;2.90;;;;;;;16.69;100.00;101923.75;4731841;30;20064;-63
2022/07/23 06:23:16;;;;;;;4.45;2.58;;;;;;;16.71;100.00;101916.47;4737610;30;20057;-62
2022/07/23 06:25:42;;;;;;;6.05;2.58;;;;;;;16.73;100.00;101915.31;4733067;30;20060;-62
2022/07/23 06:28:09;;;;;;;5.50;2.80;;;;;;;16.76;100.00;101916.84;4729039;30;20061;-62
2022/07/23 06:30:35;;;;;;;5.60;2.85;;;;;;;16.82;100.00;101915.38;4741814;30;20063;-63
2022/07/23 06:33:01;;;;;;;6.78;3.20;;;;;;;16.75;100.00;101918.63;4724940;30;20075;-62
2022/07/23 06:35:28;;;;;;;7.25;3.17;;;;;;;16.74;100.00;101921.44;4729042;30;20068;-63
2022/07/23 06:37:55;;;;;;;6.00;3.13;;;;;;;16.74;100.00;101926.75;4725859;30;21005;-61
2022/07/23 06:40:21;;;;;;;4.22;2.80;;;;;;;16.78;100.00;101930.75;4734639;30;20070;-63
2022/07/23 06:42:48;;;;;;;6.85;3.38;;;;;;;16.83;100.00;101936.41;4741551;30;20070;-63
2022/07/23 06:45:14;;;;;;;5.47;3.17;;;;;;;16.90;100.00;101932.16;4729692;30;20059;-63
2022/07/23 06:47:41;;;;;;;5.13;2.80;;;;;;;16.96;100.00;101933.31;4737311;30;20715;-62
2022/07/23 06:50:08;;;;;;;6.25;2.85;;;;;;;16.99;100.00;101943.59;4733424;30;20502;-64
2022/07/23 06:52:35;;;;;;;6.20;2.53;;;;;;;17.05;100.00;101942.13;4739481;30;20313;-62
2022/07/23 06:55:08;;;;;;;6.63;2.25;;;;;;;17.06;100.00;101939.31;4727884;30;20469;-62
2022/07/23 06:57:34;;;;;;;4.57;2.00;;;;;;;17.12;100.00;101927.22;4733551;30;20416;-63
2022/07/23 07:00:00;;;;;;;4.60;2.13;;;;;;;17.20;100.00;101933.38;4729708;30;20446;-62
2022/07/23 07:02:27;;;;;;;6.13;1.92;;;;;;;17.26;100.00;101934.53;4716033;30;20575;-61
2022/07/23 07:04:53;;;;;;;5.10;1.98;;;;;;;17.27;100.00;101944.16;4730615;30;20063;-62
2022/07/23 07:07:20;;;;;;;4.97;2.15;;;;;;;17.34;100.00;101939.03;4730225;30;20063;-61
2022/07/23 07:09:46;;;;;;;3.42;1.98;;;;;;;17.44;100.00;101938.88;4735248;30;20422;-61
2022/07/23 07:12:14;;;;;;;4.05;2.22;;;;;;;17.51;100.00;101945.19;4742516;30;20076;-60
2022/07/23 07:14:40;;;;;;;5.97;2.28;;;;;;;17.56;100.00;101940.19;4727871;30;20068;-62
2022/07/23 07:17:06;;;;;;;3.97;2.30;;;;;;;17.62;100.00;101938.72;4739756;30;20060;-63
2022/07/23 07:19:33;;;;;;;5.30;2.33;;;;;;;17.65;100.00;101939.22;4728473;30;20147;-64
2022/07/23 07:21:59;;;;;;;5.60;2.30;;;;;;;17.65;100.00;101931.25;4730482;30;20065;-62
2022/07/23 07:24:26;;;;;;;3.85;1.90;;;;;;;17.74;100.00;101929.44;4725723;30;20062;-63
2022/07/23 07:26:58;;;;;;;6.03;2.40;;;;;;;17.75;100.00;101934.56;4720521;30;20479;-63
2022/07/23 07:29:25;;;;;;;5.93;2.20;;;;;;;17.81;100.00;101934.91;4711908;30;20063;-63
2022/07/23 07:31:51;;;;;;;5.22;2.33;;;;;;;17.82;100.00;101931.25;4732905;30;20079;-63
2022/07/23 07:34:18;;;;;;;5.93;2.30;;;;;;;17.84;100.00;101931.94;4738663;30;20070;-62
2022/07/23 07:36:45;;;;;;;5.75;2.25;;;;;;;17.77;100.00;101932.56;4729301;30;20548;-61
2022/07/23 07:39:12;;;;;;;4.45;2.10;;;;;;;17.85;100.00;101938.91;4731119;30;20064;-62
2022/07/23 07:41:38;;;;;;;3.08;2.17;;;;;;;17.79;100.00;101935.06;4718313;30;20060;-61
2022/07/23 07:44:05;;;;;;;7.03;2.42;;;;;;;17.79;100.00;101933.22;4722787;30;20079;-62
2022/07/23 07:46:31;;;;;;;6.65;1.90;;;;;;;17.88;100.00;101942.06;4721026;30;20656;-62
2022/07/23 07:48:58;;;;;;;5.88;2.20;;;;;;;17.92;100.00;101938.06;4734805;30;20064;-62
2022/07/23 07:51:25;;;;;;;4.88;1.85;;;;;;;17.97;100.00;101937.56;4731524;30;20146;-62
2022/07/23 07:53:52;;;;;;;3.28;1.88;;;;;;;18.04;100.00;101945.69;4731706;30;20381;-61
2022/07/23 07:56:18;;;;;;;2.22;1.80;;;;;;;18.12;100.00;101951.00;4742058;30;20066;-62
2022/07/23 07:58:45;;;;;;;2.83;1.60;;;;;;;18.13;100.00;101964.09;4723141;30;20687;-60
2022/07/23 08:01:11;;;;;;;4.70;1.52;;;;;;;18.19;100.00;101962.59;4733486;30;20067;-62
2022/07/23 08:03:38;;;;;;;4.95;1.80;;;;;;;18.25;100.00;101963.72;4728447;30;20056;-63
2022/07/23 08:06:05;;;;;;;3.35;2.03;;;;;;;18.26;100.00;101966.22;4719147;30;20207;-63
2022/07/23 08:08:31;;;;;;;4.05;1.88;;;;;;;18.32;100.00;101964.72;4725745;30;20067;-63
2022/07/23 08:10:58;;;;;;;2.45;1.45;;;;;;;18.44;100.00;101971.31;4729004;30;20064;-62
2022/07/23 08:13:24;;;;;;;5.50;2.15;;;;;;;18.48;100.00;101964.66;4739795;30;20147;-62
2022/07/23 08:15:52;;;;;;;3.22;1.77;;;;;;;18.55;100.00;101973.63;4739972;30;20070;-62
2022/07/23 08:18:19;;;;;;;;;;;;;;;18.56;100.00;101969.13;4736908;30;20760;-63
2022/07/23 08:20:46;;;;;;;3.35;1.80;;;;;;;18.62;100.00;101967.63;4739893;30;20303;-63
2022/07/23 08:23:12;;;;;;;6.50;2.10;;;;;;;18.69;100.00;101969.41;4727167;30;20537;-64
2022/07/23 08:25:41;;;;;;;5.22;1.80;;;;;;;18.80;100.00;101968.25;4737989;30;20071;-62
2022/07/23 08:28:12;;;;;;;3.28;1.70;;;;;;;18.91;100.00;101967.03;4730576;30;20064;-64
2022/07/23 08:30:40;;;;;;;3.38;1.60;;;;;;;19.02;100.00;101976.47;4736677;30;20143;-64
2022/07/23 08:33:15;;;;;;;3.20;1.40;;;;;;;19.19;100.00;101980.69;4729310;30;20072;-62
2022/07/23 08:35:59;;;;;;;4.38;1.45;;;;;;;19.41;100.00;101976.38;4731354;30;20067;-62
2022/07/23 08:38:26;;;;;;;3.65;1.88;;;;;;;19.61;100.00;101975.94;4729745;30;20060;-63
2022/07/23 08:40:54;;;;;;;4.18;1.42;;;;;;;19.95;100.00;101972.81;4736001;30;20060;-63
2022/07/23 08:43:23;;;;;;;;;;;;;;;20.31;100.00;101982.81;4737742;30;20423;-63
2022/07/23 08:45:52;;;;;;;;;;;;;;;20.61;100.00;101980.19;4731309;30;20246;-62
2022/07/23 08:48:23;;;;;;;1.83;1.55;;;;;;;21.00;100.00;101977.19;4740317;30;20028;-61
2022/07/23 08:50:52;;;;;;;3.70;1.67;;;;;;;21.22;96.26;101978.03;4725442;30;20068;-62
2022/07/23 08:53:19;;;;;;;3.00;1.50;;;;;;;21.59;100.00;101978.84;4732837;30;20066;-63
2022/07/23 08:55:48;;;;;;;3.92;1.75;;;;;;;21.57;91.31;101986.22;4726868;30;20392;-62
2022/07/23 08:58:16;;;;;;;4.05;1.80;;;;;;;21.68;92.56;101977.69;4733838;30;20071;-63
2022/07/23 09:00:42;;;;;;;2.97;1.60;;;;;;;21.72;93.74;101970.13;4740234;30;20070;-62
2022/07/23 09:03:17;;;;;;;4.28;1.92;;;;;;;22.09;94.15;101970.81;4729537;30;20060;-62
2022/07/23 09:05:44;;;;;;;3.30;1.45;;;;;;;22.42;89.63;101971.03;4709502;30;20711;-63
2022/07/23 09:08:13;;;;;;;2.58;1.55;;;;;;;22.85;91.38;101970.84;4727951;30;20075;-62
2022/07/23 09:10:45;;;;;;;4.13;1.50;;;;;;;23.13;88.35;101971.78;4747645;30;20063;-63
2022/07/23 09:13:45;;;;;;;2.97;1.40;;;;;;;23.47;88.91;101977.00;4729864;30;20451;-63
2022/07/23 09:16:13;;;;;;;3.90;1.50;;;;;;;23.60;81.42;101970.00;4745990;30;20419;-62
2022/07/23 09:18:51;;;;;;;3.55;1.70;;;;;;;23.64;81.63;101976.63;4732795;30;20060;-64
2022/07/23 09:21:28;;;;;;;3.93;1.70;;;;;;;23.75;79.76;101969.81;4733176;30;20068;-62
2022/07/23 09:24:00;;;;;;;2.55;1.45;;;;;;;24.02;83.02;101971.47;4735188;30;20064;-60
2022/07/23 09:26:31;;;;;;;2.15;1.45;;;;;;;24.27;79.21;101968.13;4722365;30;20052;-62
2022/07/23 09:29:01;;;;;;;3.15;1.60;;;;;;;24.37;78.59;101973.88;4740526;30;20083;-63
2022/07/23 09:31:52;;;;;;;4.65;1.50;;;;;;;24.51;78.89;101969.31;4713484;30;20060;-63
2022/07/23 09:34:27;;;;;;;5.93;1.80;;;;;;;24.69;78.00;101971.31;4721259;30;20466;-63
2022/07/23 09:37:08;;;;;;;3.03;1.50;;;;;;;24.64;73.41;101973.81;4720902;30;20072;-63
2022/07/23 09:39:34;;;;;;;2.95;1.40;;;;;;;24.66;73.80;101975.25;4735688;30;20064;-63
2022/07/23 09:42:20;;;;;;;4.82;1.75;;;;;;;24.98;76.45;101971.81;4729798;30;20071;-62
2022/07/23 09:44:50;;;;;;;4.45;1.70;;;;;;;25.24;78.09;101974.34;4731699;30;20060;-64
2022/07/23 09:47:17;;;;;;;3.35;1.65;;;;;;;25.10;70.55;101969.25;4740622;30;20059;-63
2022/07/23 09:49:59;;;;;;;4.75;1.40;;;;;;;25.43;73.16;101966.41;4717652;30;20061;-63
2022/07/23 09:52:27;;;;;;;4.40;1.60;;;;;;;25.62;72.44;101967.28;4733401;30;20064;-63
2022/07/23 09:55:02;;;;;;;2.63;1.25;;;;;;;25.64;69.75;101973.25;4728441;30;20542;-63
2022/07/23 09:57:31;;;;;;;2.70;1.40;;;;;;;25.62;68.45;101975.34;4725448;30;20151;-63
2022/07/23 10:00:05;;;;;;;3.08;1.40;;;;;;;25.69;68.61;101972.59;4716270;30;20060;-63
2022/07/23 10:02:33;;;;;;;3.65;1.75;;;;;;;25.74;68.67;101973.59;4729865;30;20080;-63
2022/07/23 10:05:01;;;;;;;2.85;1.60;;;;;;;25.62;71.11;101969.97;4727547;30;20072;-63
2022/07/23 10:07:33;;;;;;;3.60;1.60;;;;;;;26.02;73.36;101972.31;4745061;30;20065;-64
2022/07/23 10:10:00;;;;;;;4.53;1.60;;;;;;;26.18;69.37;101971.75;4743596;30;20369;-63
2022/07/23 10:14:57;;;;;;;4.10;1.70;;;;;;;26.37;71.68;101963.69;4737545;30;20063;-63
2022/07/23 10:17:24;;;;;;;;;;;;;;;26.48;67.92;101962.09;4732922;30;20071;-62
2022/07/23 10:19:50;;;;;;;2.42;1.60;;;;;;;26.53;66.83;101956.88;4734599;30;19930;-63
2022/07/23 10:22:27;;;;;;;3.90;1.70;;;;;;;26.57;67.95;101953.50;4729937;30;20510;-63
2022/07/23 10:25:30;;;;;;;4.80;1.83;;;;;;;26.78;68.14;101957.63;4737968;30;20068;-63
2022/07/23 10:28:01;;;;;;;3.92;1.65;;;;;;;26.59;66.35;101956.00;4696745;30;20530;-63
2022/07/23 10:30:42;;;;;;;2.30;1.67;;;;;;;26.48;66.21;101954.84;4738251;30;20063;-63
2022/07/23 10:33:29;;;;;;;2.80;1.67;;;;;;;26.52;67.37;101953.38;4731758;30;20510;-63
2022/07/23 10:36:09;;;;;;;3.65;1.50;;;;;;;26.80;69.81;101952.03;4727518;30;20339;-63
2022/07/23 10:38:55;;;;;;;4.78;1.70;;;;;;;27.20;69.45;101957.63;4735426;30;20073;-63
2022/07/23 10:41:33;;;;;;;3.05;1.73;;;;;;;27.49;67.74;101948.97;4716385;30;20060;-63
2022/07/23 10:44:08;;;;;;;;;;;;;;;27.64;67.73;101946.63;4736763;30;20060;-64
2022/07/23 10:49:24;;;;;;;4.63;1.85;;;;;;;27.48;66.95;101941.91;4731855;30;20056;-63
2022/07/23 10:52:13;;;;;;;2.13;1.55;;;;;;;27.78;65.46;101955.31;4710422;30;20510;-63
2022/07/23 10:54:57;;;;;;;5.38;1.90;;;;;;;27.65;63.57;101958.22;4738713;30;20147;-63
2022/07/23 10:57:25;;;;;;;3.90;1.92;;;;;;;27.65;63.93;101959.03;4721601;30;20416;-63
2022/07/23 11:00:22;;;;;;;2.63;1.58;;;;;;;27.94;67.75;101960.00;4733357;30;20057;-63
2022/07/23 11:02:50;;;;;;;4.05;1.70;;;;;;;27.89;65.58;101959.88;4726976;30;20518;-63
2022/07/23 11:05:21;;;;;;;5.07;1.90;;;;;;;28.11;65.26;101962.81;4737570;30;20056;-65
2022/07/23 11:08:04;;;;;;;3.20;1.88;;;;;;;28.23;63.97;101951.19;4727434;30;20072;-63
2022/07/23 11:10:39;;;;;;;4.45;2.03;;;;;;;28.22;65.01;101953.06;4720540;30;20264;-63
2022/07/23 11:13:21;;;;;;;3.60;2.20;;;;;;;28.45;63.42;101954.09;4734540;30;20056;-63
2022/07/23 11:16:04;;;;;;;4.03;1.80;;;;;;;28.39;61.94;101948.56;4734529;30;20121;-63
2022/07/23 11:18:40;;;;;;;4.18;2.25;;;;;;;28.17;61.98;101952.97;4739670;30;20518;-63
2022/07/23 11:21:28;;;;;;;4.13;2.15;;;;;;;28.05;61.55;101952.16;4713032;30;20416;-63
2022/07/23 11:24:10;;;;;;;2.70;1.88;;;;;;;27.99;65.63;101946.66;4726134;30;20289;-64
2022/07/23 11:26:36;;;;;;;2.53;1.73;;;;;;;28.05;62.90;101950.28;4717817;30;20056;-63
2022/07/23 11:29:42;;;;;;;3.63;1.50;;;;;;;28.28;64.42;101949.41;4737779;30;20059;-63
2022/07/23 11:32:27;;;;;;;5.38;1.60;;;;;;;28.43;62.02;101950.81;4666023;30;20073;-63